Airports Greece Skiathos Island National Airport

Skiathos Island National Airport (LGSK / JSI)

Facts about Skiathos Island National Airport

Name Skiathos Island National Airport
City Skiathos
Country Greece
ICAO code LGSK
IATA code JSI
Elevation 16.4592 meters (54 feet)

Weather

METAR

Metar data retrieved Friday, 19 July 2024 at 23:25 UTC (14 minutes ago)

LGSK 192020Z 35005KT CAVOK 30/24 Q1010

Live traffic

Navigraph Charts (account required)